Impacts TAF Board INFO
FOR SITUATIONAL AWARENESS. NOT TO BE USED FOR FLIGHT PLANNING PURPOSES.
IDs:

KCLE - Cleveland/Hopkins In, OH, US

Issued at 2044 UTC 19 Jun 2018
Updated at 2206 UTC 19 Jun 2018
Potential Impact None Slight Moderate High
Time<<20/23Z 21/00Z 21/01Z 21/02Z 21/03Z 21/04Z 21/05Z 21/06Z 21/07Z 21/08Z 21/09Z 21/10Z 21/11Z
Type PRVL
VIS >6
CIG 40
Cover BKN
FltCat VFR
WX --
WDir 30
WSpd 8
WGst --

Raw TAF
KCLE 192044Z 1921/2024 02012KT P6SM BKN250
  FM200300 VRB03KT P6SM BKN060
  FM201200 03004KT P6SM -SHRA VCTS OVC035CB
  FM201500 03006KT P6SM OVC025
  FM202300 03008KT P6SM BKN040


METAR Board
Radar Display
Forecast Discussion

FOR SITUATIONAL AWARENESS. NOT TO BE USED FOR FLIGHT PLANNING PURPOSES.